| time (UTC) | temp F | wind direction | speed MPH | gust MPH | rain 1hr in | rain 24hr in | rain mn in | humidity % | barometer mb |
| 20260508132444 | 47 | 270 | 7.0 | 11.0 | 0.00 | 0.00 | 0.00 | 50 | 1013.2 |
| 20260508131445 | 46 | 261 | 4.0 | 9.0 | 0.00 | 0.00 | 0.00 | 51 | 1013.2 |
| 20260508131401 | 46 | 260 | 5.0 | 9.0 | 0.00 | 0.00 | 0.00 | 50 | 1013.2 |
| 20260508130443 | 46 | 335 | 4.0 | 7.0 | 0.00 | 0.00 | 0.00 | 51 | 1013.3 |
| 20260508125445 | 46 | 335 | 3.0 | 6.0 | 0.00 | 0.00 | 0.00 | 52 | 1013.3 |
| 20260508125344 | 46 | 265 | 3.0 | 6.0 | 0.00 | 0.00 | 0.00 | 52 | 1013.3 |
| 20260508124346 | 46 | 308 | 3.0 | 7.0 | 0.00 | 0.00 | 0.00 | 52 | 1013.3 |
| 20260508124245 | 45 | 269 | 4.0 | 10.0 | 0.00 | 0.00 | 0.00 | 52 | 1013.3 |
| 20260508123247 | 45 | 275 | 5.0 | 7.0 | 0.00 | 0.00 | 0.00 | 52 | 1013.2 |
| 20260508123145 | 45 | 242 | 6.0 | 13.0 | 0.00 | 0.00 | 0.00 | 53 | 1013.2 |
| 20260508122146 | 45 | 254 | 5.0 | 8.0 | 0.00 | 0.00 | 0.00 | 54 | 1013.2 |
| 20260508121146 | 45 | 333 | 3.0 | 8.0 | 0.00 | 0.00 | 0.00 | 55 | 1013.2 |
| 20260508120146 | 45 | 301 | 4.0 | 7.0 | 0.00 | 0.00 | 0.00 | 55 | 1013.2 |
| 20260508115147 | 44 | 275 | 3.0 | 7.0 | 0.00 | 0.00 | 0.00 | 56 | 1013.2 |
| 20260508114146 | 44 | 254 | 4.0 | 7.0 | 0.00 | 0.00 | 0.00 | 57 | 1013.0 |
| 20260508113201 | 44 | 262 | 1.0 | 3.0 | 0.00 | 0.00 | 0.00 | 57 | 1012.9 |
| 20260508111044 | 44 | 262 | 5.0 | 9.0 | 0.00 | 0.00 | 0.00 | 61 | 1012.8 |
| 20260508110946 | 43 | 249 | 5.0 | 10.0 | 0.00 | 0.00 | 0.00 | 62 | 1012.7 |
| 20260508110045 | 42 | 269 | 4.0 | 6.0 | 0.00 | 0.00 | 0.00 | 67 | 1012.6 |
| 20260508105944 | 41 | 326 | 3.0 | 6.0 | 0.00 | 0.00 | 0.00 | 68 | 1012.6 |
| 20260508104946 | 38 | 247 | 0.0 | 1.0 | 0.00 | 0.00 | 0.00 | 73 | 1012.5 |
| 20260508103945 | 37 | 149 | 0.0 | 2.0 | 0.00 | 0.00 | 0.00 | 74 | 1012.4 |
| 20260508102946 | 38 | 157 | 2.0 | 3.0 | 0.00 | 0.00 | 0.00 | 74 | 1012.3 |
| 20260508102844 | 38 | 189 | 2.0 | 3.0 | 0.00 | 0.00 | 0.00 | 74 | 1012.4 |
| 20260508101845 | 38 | 292 | 0.0 | 0.0 | 0.00 | 0.00 | 0.00 | 75 | 1012.2 |
| 20260508100847 | 38 | 8 | 1.0 | 2.0 | 0.00 | 0.00 | 0.00 | 77 | 1012.0 |
| 20260508095846 | 36 | 258 | 1.0 | 2.0 | 0.00 | 0.00 | 0.00 | 82 | 1012.0 |
| 20260508095744 | 36 | 302 | 2.0 | 3.0 | 0.00 | 0.00 | 0.00 | 83 | 1012.0 |
| 20260508094745 | 34 | 22 | 0.0 | 0.0 | 0.00 | 0.00 | 0.00 | 85 | 1011.9 |
| 20260508093843 | 34 | 337 | 0.0 | 0.0 | 0.00 | 0.00 | 0.00 | 84 | 1011.8 |
| 20260508092845 | 34 | 337 | 0.0 | 0.0 | 0.00 | 0.00 | 0.00 | 82 | 1011.8 |
| 20260508091846 | 34 | 225 | 0.0 | 0.0 | 0.00 | 0.00 | 0.00 | 80 | 1011.8 |
| 20260508090944 | 35 | 225 | 0.0 | 1.0 | 0.00 | 0.00 | 0.00 | 77 | 1011.8 |
| 20260508090844 | 35 | 225 | 0.0 | 0.0 | 0.00 | 0.00 | 0.00 | 77 | 1011.7 |
| 20260508090745 | 36 | 225 | 1.0 | 2.0 | 0.00 | 0.00 | 0.00 | 76 | 1011.6 |
| 20260508090647 | 36 | 206 | 0.0 | 2.0 | 0.00 | 0.00 | 0.00 | 76 | 1011.6 |
| 20260508085744 | 37 | 270 | 0.0 | 0.0 | 0.00 | 0.00 | 0.00 | 74 | 1011.6 |
| 20260508085644 | 37 | 270 | 0.0 | 0.0 | 0.00 | 0.00 | 0.00 | 74 | 1011.6 |
| 20260508084743 | 37 | 22 | 0.0 | 0.0 | 0.00 | 0.00 | 0.00 | 75 | 1011.6 |
| 20260508083744 | 36 | 337 | 0.0 | 0.0 | 0.00 | 0.00 | 0.00 | 78 | 1011.7 |
| 20260508082745 | 36 | 293 | 0.0 | 1.0 | 0.00 | 0.00 | 0.00 | 81 | 1011.5 |
| 20260508080744 | 33 | 180 | 0.0 | 0.0 | 0.00 | 0.00 | 0.00 | 86 | 1011.5 |
| 20260508074843 | 33 | 180 | 0.0 | 0.0 | 0.00 | 0.00 | 0.00 | 84 | 1011.1 |
| 20260508073845 | 33 | 180 | 0.0 | 0.0 | 0.00 | 0.00 | 0.00 | 83 | 1011.0 |
| 20260508072747 | 34 | 180 | 0.0 | 0.0 | 0.00 | 0.00 | 0.00 | 83 | 1011.0 |
| 20260508070744 | 34 | 180 | 0.0 | 1.0 | 0.00 | 0.00 | 0.00 | 83 | 1011.0 |
| 20260508064744 | 33 | 180 | 0.0 | 0.0 | 0.00 | 0.00 | 0.00 | 83 | 1011.0 |
| 20260508062744 | 35 | 180 | 0.0 | 0.0 | 0.00 | 0.00 | 0.00 | 79 | 1011.1 |
| 20260508061744 | 36 | 180 | 0.0 | 0.0 | 0.00 | 0.00 | 0.00 | 78 | 1011.2 |
| 20260508060745 | 36 | 180 | 0.0 | 0.0 | 0.00 | 0.00 | 0.00 | 78 | 1010.9 |
| 20260508055745 | 36 | 180 | 1.0 | 2.0 | 0.00 | 0.00 | 0.00 | 76 | 1011.2 |
| 20260508055646 | 36 | 180 | 2.0 | 2.0 | 0.00 | 0.00 | 0.00 | 76 | 1011.2 |
| 20260508054645 | 37 | 180 | 1.0 | 1.0 | 0.00 | 0.00 | 0.00 | 75 | 1011.4 |
| 20260508052645 | 37 | 180 | 2.0 | 2.0 | 0.00 | 0.00 | 0.00 | 75 | 1011.4 |
| 20260508051744 | 37 | 180 | 2.0 | 2.0 | 0.00 | 0.00 | 0.00 | 76 | 1011.6 |
| 20260508051644 | 37 | 180 | 2.0 | 3.0 | 0.00 | 0.00 | 0.00 | 76 | 1011.6 |
| 20260508050702 | 37 | 180 | 2.0 | 3.0 | 0.00 | 0.00 | 0.00 | 75 | 1011.7 |
| 20260508045646 | 38 | 180 | 1.0 | 2.0 | 0.00 | 0.00 | 0.00 | 74 | 1011.8 |
| 20260508044744 | 38 | 180 | 1.0 | 1.0 | 0.00 | 0.00 | 0.00 | 74 | 1011.8 |
| 20260508043743 | 38 | 180 | 2.0 | 2.0 | 0.00 | 0.00 | 0.00 | 74 | 1011.8 |
| 20260508042743 | 39 | 180 | 0.0 | 0.0 | 0.00 | 0.00 | 0.00 | 73 | 1011.8 |
| 20260508041746 | 39 | 180 | 1.0 | 2.0 | 0.00 | 0.00 | 0.00 | 73 | 1011.9 |
| 20260508040744 | 39 | 180 | 1.0 | 2.0 | 0.00 | 0.00 | 0.00 | 72 | 1012.1 |
| 20260508035826 | 39 | 180 | 2.0 | 2.0 | 0.00 | 0.00 | 0.00 | 73 | 1011.9 |
| 20260508034827 | 39 | 180 | 1.0 | 1.0 | 0.00 | 0.00 | 0.00 | 74 | 1012.1 |
| 20260508033827 | 40 | 180 | 1.0 | 1.0 | 0.00 | 0.00 | 0.00 | 74 | 1012.0 |
| 20260508032925 | 40 | 180 | 2.0 | 2.0 | 0.00 | 0.00 | 0.00 | 75 | 1012.2 |
| 20260508030942 | 41 | 180 | 0.0 | 0.0 | 0.00 | 0.00 | 0.00 | 73 | 1011.9 |
| 20260508030826 | 41 | 180 | 0.0 | 0.0 | 0.00 | 0.00 | 0.00 | 73 | 1011.9 |
| 20260508030727 | 41 | 180 | 0.0 | 0.0 | 0.00 | 0.00 | 0.00 | 73 | 1012.0 |
| 20260508025726 | 42 | 180 | 0.0 | 0.0 | 0.00 | 0.00 | 0.00 | 72 | 1011.9 |
| 20260508025626 | 42 | 180 | 0.0 | 0.0 | 0.00 | 0.00 | 0.00 | 72 | 1011.9 |
| 20260508024626 | 42 | 180 | 0.0 | 0.0 | 0.00 | 0.00 | 0.00 | 70 | 1011.9 |
| 20260508023627 | 43 | 180 | 0.0 | 0.0 | 0.00 | 0.00 | 0.00 | 67 | 1011.9 |
| 20260508022626 | 43 | 180 | 0.0 | 0.0 | 0.00 | 0.02 | 0.00 | 65 | 1011.9 |
| 20260508022525 | 43 | 180 | 0.0 | 0.0 | 0.00 | 0.02 | 0.00 | 65 | 1011.9 |
| 20260508021525 | 43 | 180 | 0.0 | 0.0 | 0.00 | 0.03 | 0.00 | 66 | 1011.8 |
| 20260508020528 | 43 | 180 | 0.0 | 0.0 | 0.00 | 0.03 | 0.00 | 65 | 1011.8 |
| 20260508014624 | 44 | 180 | 0.0 | 0.0 | 0.00 | 0.04 | 0.00 | 60 | 1011.5 |
| 20260508013626 | 44 | 180 | 0.0 | 0.0 | 0.00 | 0.04 | 0.00 | 58 | 1011.2 |
| 20260508012625 | 45 | 175 | 0.0 | 0.0 | 0.00 | 0.04 | 0.00 | 58 | 1011.1 |
| 20260508010626 | 46 | 315 | 0.0 | 1.0 | 0.00 | 0.05 | 0.00 | 53 | 1011.0 |
| 20260508005625 | 46 | 247 | 0.0 | 0.0 | 0.00 | 0.06 | 0.00 | 52 | 1011.0 |
| 20260508004625 | 47 | 266 | 1.0 | 2.0 | 0.00 | 0.07 | 0.00 | 49 | 1010.7 |
| 20260508003628 | 48 | 180 | 0.0 | 0.0 | 0.00 | 0.10 | 0.00 | 47 | 1010.8 |
| 20260508003527 | 48 | 180 | 0.0 | 0.0 | 0.00 | 0.10 | 0.00 | 47 | 1010.8 |
| 20260508003427 | 48 | 180 | 0.0 | 0.0 | 0.00 | 0.10 | 0.00 | 47 | 1010.8 |
| 20260508002525 | 49 | 180 | 0.0 | 0.0 | 0.00 | 0.10 | 0.00 | 45 | 1010.6 |
| 20260508001625 | 49 | 270 | 0.0 | 2.0 | 0.00 | 0.10 | 0.00 | 44 | 1010.5 |
| 20260508000626 | 50 | 22 | 0.0 | 0.0 | 0.00 | 0.10 | 0.00 | 42 | 1010.4 |
| 20260507235725 | 51 | 254 | 0.0 | 2.0 | 0.00 | 0.10 | 0.00 | 41 | 1010.3 |
| 20260507234727 | 51 | 268 | 2.0 | 3.0 | 0.00 | 0.10 | 0.00 | 40 | 1010.1 |
| 20260507233725 | 52 | 259 | 4.0 | 6.0 | 0.00 | 0.10 | 0.00 | 39 | 1010.1 |
| 20260507233625 | 52 | 326 | 2.0 | 3.0 | 0.00 | 0.10 | 0.00 | 39 | 1010.1 |
| 20260507232626 | 52 | 286 | 3.0 | 6.0 | 0.00 | 0.10 | 0.00 | 38 | 1010.2 |
| 20260507232527 | 52 | 301 | 2.0 | 5.0 | 0.00 | 0.10 | 0.00 | 39 | 1010.2 |
| 20260507231626 | 53 | 279 | 2.0 | 4.0 | 0.00 | 0.10 | 0.00 | 39 | 1010.1 |
| 20260507230626 | 53 | 327 | 2.0 | 4.0 | 0.00 | 0.10 | 0.00 | 39 | 1010.1 |
| 20260507225626 | 53 | 299 | 3.0 | 6.0 | 0.00 | 0.10 | 0.00 | 39 | 1010.1 |
| 20260507225529 | 53 | 328 | 3.0 | 6.0 | 0.00 | 0.10 | 0.00 | 39 | 1010.1 |
| 20260507224626 | 53 | 337 | 2.0 | 3.0 | 0.00 | 0.10 | 0.00 | 40 | 1010.1 |
| 20260507224525 | 53 | 337 | 1.0 | 2.0 | 0.00 | 0.10 | 0.00 | 40 | 1010.1 |
| 20260507224428 | 53 | 337 | 0.0 | 1.0 | 0.00 | 0.10 | 0.00 | 40 | 1010.1 |
| 20260507221425 | 53 | 331 | 2.0 | 3.0 | 0.00 | 0.10 | 0.00 | 38 | 1009.7 |
| 20260507220426 | 54 | 320 | 2.0 | 4.0 | 0.00 | 0.10 | 0.00 | 38 | 1009.7 |
| 20260507215525 | 54 | 327 | 1.0 | 3.0 | 0.00 | 0.10 | 0.00 | 37 | 1009.7 |
| 20260507215425 | 54 | 290 | 1.0 | 6.0 | 0.00 | 0.10 | 0.00 | 37 | 1009.6 |
| 20260507214426 | 55 | 271 | 3.0 | 7.0 | 0.00 | 0.10 | 0.00 | 37 | 1009.4 |
| 20260507213429 | 55 | 269 | 0.0 | 1.0 | 0.00 | 0.10 | 0.00 | 37 | 1009.5 |
| 20260507212427 | 55 | 330 | 3.0 | 6.0 | 0.00 | 0.10 | 0.00 | 37 | 1009.5 |
| 20260507211426 | 55 | 287 | 4.0 | 7.0 | 0.00 | 0.10 | 0.00 | 35 | 1009.4 |
| 20260507211326 | 55 | 272 | 5.0 | 9.0 | 0.00 | 0.10 | 0.00 | 36 | 1009.3 |
| 20260507210326 | 56 | 271 | 6.0 | 13.0 | 0.00 | 0.10 | 0.00 | 34 | 1009.5 |
| 20260507205425 | 57 | 261 | 7.0 | 13.0 | 0.00 | 0.10 | 0.00 | 34 | 1009.4 |
| 20260507204425 | 57 | 284 | 5.0 | 11.0 | 0.00 | 0.10 | 0.00 | 34 | 1009.2 |
| 20260507203427 | 57 | 276 | 6.0 | 11.0 | 0.00 | 0.10 | 0.00 | 34 | 1009.1 |
| 20260507203325 | 57 | 266 | 10.0 | 16.0 | 0.00 | 0.10 | 0.00 | 34 | 1009.1 |
| 20260507202326 | 57 | 359 | 4.0 | 8.0 | 0.00 | 0.10 | 0.00 | 34 | 1009.2 |
| 20260507195224 | 58 | 223 | 2.0 | 4.0 | 0.00 | 0.12 | 0.00 | 34 | 1009.3 |
| 20260507194225 | 59 | 329 | 3.0 | 6.0 | 0.00 | 0.12 | 0.00 | 36 | 1009.4 |
| 20260507193324 | 57 | 332 | 4.0 | 8.0 | 0.00 | 0.13 | 0.00 | 36 | 1009.4 |
| 20260507193226 | 57 | 311 | 3.0 | 8.0 | 0.00 | 0.13 | 0.00 | 37 | 1009.4 |
| 20260507192225 | 56 | 269 | 4.0 | 6.0 | 0.00 | 0.15 | 0.00 | 38 | 1009.6 |
| 20260507191324 | 56 | 293 | 5.0 | 9.0 | 0.00 | 0.17 | 0.00 | 37 | 1009.5 |
| 20260507191226 | 56 | 328 | 4.0 | 9.0 | 0.00 | 0.18 | 0.00 | 37 | 1009.7 |
| 20260507190124 | 57 | 341 | 3.0 | 6.0 | 0.00 | 0.19 | 0.00 | 37 | 1009.7 |
| 20260507185126 | 57 | 335 | 1.0 | 4.0 | 0.00 | 0.20 | 0.00 | 39 | 1009.8 |
| 20260507184126 | 56 | 251 | 4.0 | 9.0 | 0.00 | 0.20 | 0.00 | 39 | 1009.8 |
| 20260507183125 | 56 | 270 | 4.0 | 7.0 | 0.00 | 0.20 | 0.00 | 39 | 1009.9 |
| 20260507182126 | 56 | 277 | 6.0 | 9.0 | 0.00 | 0.21 | 0.00 | 38 | 1010.3 |
| 20260507181126 | 56 | 316 | 6.0 | 11.0 | 0.00 | 0.22 | 0.00 | 38 | 1010.2 |
| 20260507175226 | 55 | 278 | 5.0 | 9.0 | 0.00 | 0.24 | 0.00 | 39 | 1010.3 |
| 20260507175142 | 54 | 337 | 3.0 | 9.0 | 0.00 | 0.24 | 0.00 | 38 | 1010.2 |
| 20260507174228 | 55 | 266 | 7.0 | 10.0 | 0.00 | 0.25 | 0.00 | 37 | 1010.3 |
| 20260507173225 | 55 | 351 | 4.0 | 9.0 | 0.00 | 0.26 | 0.00 | 38 | 1010.3 |
| 20260507173125 | 55 | 336 | 2.0 | 4.0 | 0.00 | 0.26 | 0.00 | 38 | 1010.3 |
| 20260507172126 | 55 | 269 | 3.0 | 7.0 | 0.00 | 0.27 | 0.00 | 37 | 1010.3 |
| 20260507171225 | 55 | 270 | 6.0 | 14.0 | 0.00 | 0.28 | 0.00 | 39 | 1010.5 |
| 20260507171124 | 55 | 334 | 4.0 | 10.0 | 0.00 | 0.28 | 0.00 | 38 | 1010.3 |
| 20260507170125 | 54 | 272 | 6.0 | 10.0 | 0.00 | 0.28 | 0.00 | 38 | 1010.6 |
| 20260507170024 | 54 | 252 | 6.0 | 9.0 | 0.00 | 0.28 | 0.00 | 39 | 1010.8 |
| 20260507165026 | 54 | 334 | 6.0 | 11.0 | 0.00 | 0.30 | 0.00 | 39 | 1011.0 |
| 20260507164125 | 54 | 297 | 6.0 | 11.0 | 0.00 | 0.30 | 0.00 | 41 | 1011.0 |
| 20260507163224 | 54 | 272 | 5.0 | 11.0 | 0.00 | 0.30 | 0.00 | 41 | 1011.1 |
| 20260507162227 | 53 | 241 | 6.0 | 9.0 | 0.00 | 0.30 | 0.00 | 41 | 1011.0 |
| 20260507161225 | 53 | 314 | 4.0 | 7.0 | 0.00 | 0.30 | 0.00 | 40 | 1011.2 |
| 20260507160323 | 54 | 252 | 7.0 | 11.0 | 0.00 | 0.30 | 0.00 | 41 | 1011.3 |
| 20260507160224 | 54 | 336 | 5.0 | 9.0 | 0.00 | 0.30 | 0.00 | 42 | 1011.2 |
| 20260507155225 | 54 | 295 | 3.0 | 6.0 | 0.00 | 0.30 | 0.00 | 42 | 1011.3 |
| 20260507154227 | 53 | 357 | 8.0 | 14.0 | 0.00 | 0.30 | 0.00 | 41 | 1011.1 |
| 20260507152341 | 52 | 276 | 1.0 | 3.0 | 0.00 | 0.30 | 0.00 | 45 | 1011.4 |
| 20260507151426 | 53 | 293 | 4.0 | 7.0 | 0.00 | 0.30 | 0.00 | 44 | 1011.7 |
| 20260507150425 | 52 | 317 | 2.0 | 4.0 | 0.00 | 0.30 | 0.00 | 45 | 1011.7 |
| 20260507150326 | 52 | 285 | 7.0 | 11.0 | 0.00 | 0.30 | 0.00 | 46 | 1011.6 |
| 20260507150227 | 52 | 291 | 4.0 | 7.0 | 0.00 | 0.30 | 0.00 | 46 | 1011.8 |
| 20260507144327 | 52 | 335 | 6.0 | 10.0 | 0.00 | 0.30 | 0.00 | 49 | 1011.7 |
| 20260507143341 | 51 | 349 | 9.0 | 18.0 | 0.00 | 0.30 | 0.00 | 54 | 1011.5 |
| 20260507143226 | 51 | 339 | 4.0 | 7.0 | 0.00 | 0.30 | 0.00 | 54 | 1011.6 |
| 20260507142226 | 51 | 266 | 4.0 | 9.0 | 0.00 | 0.30 | 0.00 | 59 | 1011.7 |
| 20260507141225 | 50 | 320 | 8.0 | 12.0 | 0.00 | 0.30 | 0.00 | 63 | 1011.5 |
| 20260507141126 | 50 | 309 | 4.0 | 8.0 | 0.00 | 0.30 | 0.00 | 64 | 1011.7 |
| 20260507135224 | 49 | 249 | 7.0 | 12.0 | 0.00 | 0.30 | 0.00 | 73 | 1011.6 |
| 20260507135126 | 49 | 289 | 7.0 | 12.0 | 0.00 | 0.30 | 0.00 | 72 | 1011.6 |
| 20260507134140 | 50 | 318 | 4.0 | 9.0 | 0.00 | 0.30 | 0.00 | 73 | 1011.6 |
| 20260507133125 | 49 | 311 | 4.0 | 7.0 | 0.00 | 0.30 | 0.00 | 74 | 1011.5 |
| 20260507133041 | 49 | 252 | 5.0 | 9.0 | 0.00 | 0.30 | 0.00 | 74 | 1011.4 |